sensor_id;sensor_type;location;lat;lon;timestamp;temperature;humidity
73875;HTU21D;62209;47.568;7.558;2023-04-01T00:06:34;8.23;99.16
73875;HTU21D;62209;47.568;7.558;2023-04-01T00:21:39;8.23;99.50
73875;HTU21D;62209;47.568;7.558;2023-04-01T00:36:45;9.29;93.75
73875;HTU21D;62209;47.568;7.558;2023-04-01T00:51:51;9.49;91.73
73875;HTU21D;62209;47.568;7.558;2023-04-01T01:07:03;9.42;91.35
73875;HTU21D;62209;47.568;7.558;2023-04-01T01:37:40;9.35;90.50
73875;HTU21D;62209;47.568;7.558;2023-04-01T01:52:48;9.09;92.47
73875;HTU21D;62209;47.568;7.558;2023-04-01T02:07:55;9.08;91.31
73875;HTU21D;62209;47.568;7.558;2023-04-01T02:23:05;9.12;90.20
73875;HTU21D;62209;47.568;7.558;2023-04-01T02:38:13;8.87;90.53
73875;HTU21D;62209;47.568;7.558;2023-04-01T02:53:19;9.05;90.24
73875;HTU21D;62209;47.568;7.558;2023-04-01T03:08:26;8.38;96.42
73875;HTU21D;62209;47.568;7.558;2023-04-01T03:23:31;8.21;98.79
73875;HTU21D;62209;47.568;7.558;2023-04-01T03:38:37;8.24;98.04
73875;HTU21D;62209;47.568;7.558;2023-04-01T03:53:44;8.42;95.55
73875;HTU21D;62209;47.568;7.558;2023-04-01T04:08:50;8.24;95.20
73875;HTU21D;62209;47.568;7.558;2023-04-01T04:23:55;8.35;94.02
73875;HTU21D;62209;47.568;7.558;2023-04-01T04:39:02;8.29;95.26
73875;HTU21D;62209;47.568;7.558;2023-04-01T04:54:08;8.14;96.46
73875;HTU21D;62209;47.568;7.558;2023-04-01T05:09:14;8.23;94.26
73875;HTU21D;62209;47.568;7.558;2023-04-01T05:24:20;8.36;94.81
73875;HTU21D;62209;47.568;7.558;2023-04-01T05:39:25;8.45;94.65
73875;HTU21D;62209;47.568;7.558;2023-04-01T05:54:31;8.61;94.65
73875;HTU21D;62209;47.568;7.558;2023-04-01T06:09:38;8.70;95.38
73875;HTU21D;62209;47.568;7.558;2023-04-01T06:24:46;8.59;97.23
73875;HTU21D;62209;47.568;7.558;2023-04-01T06:40:09;8.67;97.66
73875;HTU21D;62209;47.568;7.558;2023-04-01T06:55:27;8.89;97.08
73875;HTU21D;62209;47.568;7.558;2023-04-01T07:10:43;8.93;97.09
73875;HTU21D;62209;47.568;7.558;2023-04-01T07:25:53;9.10;96.23
73875;HTU21D;62209;47.568;7.558;2023-04-01T07:41:05;9.10;97.29
73875;HTU21D;62209;47.568;7.558;2023-04-01T07:56:20;9.14;96.98
73875;HTU21D;62209;47.568;7.558;2023-04-01T08:11:37;9.24;96.91
73875;HTU21D;62209;47.568;7.558;2023-04-01T08:26:55;9.53;94.49
73875;HTU21D;62209;47.568;7.558;2023-04-01T08:42:07;9.75;92.72
73875;HTU21D;62209;47.568;7.558;2023-04-01T08:57:44;9.98;92.59
73875;HTU21D;62209;47.568;7.558;2023-04-01T09:13:05;10.26;90.09
73875;HTU21D;62209;47.568;7.558;2023-04-01T09:28:20;10.42;90.93
73875;HTU21D;62209;47.568;7.558;2023-04-01T09:43:37;10.20;94.05
73875;HTU21D;62209;47.568;7.558;2023-04-01T09:59:11;10.08;94.91
73875;HTU21D;62209;47.568;7.558;2023-04-01T10:14:43;10.38;94.26
73875;HTU21D;62209;47.568;7.558;2023-04-01T10:30:36;10.57;91.65
73875;HTU21D;62209;47.568;7.558;2023-04-01T10:46:06;10.35;93.46
73875;HTU21D;62209;47.568;7.558;2023-04-01T11:17:22;10.65;93.37
73875;HTU21D;62209;47.568;7.558;2023-04-01T11:32:54;11.07;91.28
73875;HTU21D;62209;47.568;7.558;2023-04-01T12:19:39;12.66;85.22
73875;HTU21D;62209;47.568;7.558;2023-04-01T12:50:29;12.08;85.29
73875;HTU21D;62209;47.568;7.558;2023-04-01T13:05:59;11.27;90.27
73875;HTU21D;62209;47.568;7.558;2023-04-01T13:21:27;11.60;91.89
73875;HTU21D;62209;47.568;7.558;2023-04-01T13:36:44;11.15;86.52
73875;HTU21D;62209;47.568;7.558;2023-04-01T14:07:39;12.13;84.43
73875;HTU21D;62209;47.568;7.558;2023-04-01T14:22:59;12.08;82.94
73875;HTU21D;62209;47.568;7.558;2023-04-01T14:38:34;11.84;82.78
73875;HTU21D;62209;47.568;7.558;2023-04-01T14:53:53;11.61;85.87
73875;HTU21D;62209;47.568;7.558;2023-04-01T15:09:08;12.12;85.40
73875;HTU21D;62209;47.568;7.558;2023-04-01T15:24:22;12.62;83.32
73875;HTU21D;62209;47.568;7.558;2023-04-01T15:39:36;12.57;83.76
73875;HTU21D;62209;47.568;7.558;2023-04-01T15:54:49;13.60;81.68
73875;HTU21D;62209;47.568;7.558;2023-04-01T16:23:04;12.60;82.81
73875;HTU21D;62209;47.568;7.558;2023-04-01T16:38:21;12.66;81.39
73875;HTU21D;62209;47.568;7.558;2023-04-01T16:53:34;12.56;80.97
73875;HTU21D;62209;47.568;7.558;2023-04-01T17:08:50;11.94;82.02
73875;HTU21D;62209;47.568;7.558;2023-04-01T17:24:09;11.39;83.83
73875;HTU21D;62209;47.568;7.558;2023-04-01T17:39:32;10.96;85.18
73875;HTU21D;62209;47.568;7.558;2023-04-01T17:54:47;10.59;87.38
73875;HTU21D;62209;47.568;7.558;2023-04-01T18:10:03;10.58;87.77
73875;HTU21D;62209;47.568;7.558;2023-04-01T18:28:24;10.16;90.92
73875;HTU21D;62209;47.568;7.558;2023-04-01T18:43:38;9.64;92.89
73875;HTU21D;62209;47.568;7.558;2023-04-01T18:58:48;8.87;93.42
73875;HTU21D;62209;47.568;7.558;2023-04-01T19:14:03;9.02;92.23
73875;HTU21D;62209;47.568;7.558;2023-04-01T19:29:23;8.91;90.72
73875;HTU21D;62209;47.568;7.558;2023-04-01T19:44:39;8.62;91.57
73875;HTU21D;62209;47.568;7.558;2023-04-01T19:59:52;8.62;91.78
73875;HTU21D;62209;47.568;7.558;2023-04-01T20:15:04;8.36;93.43
73875;HTU21D;62209;47.568;7.558;2023-04-01T20:30:33;8.01;94.72
73875;HTU21D;62209;47.568;7.558;2023-04-01T20:45:56;8.01;94.83
73875;HTU21D;62209;47.568;7.558;2023-04-01T21:01:07;8.07;95.63
73875;HTU21D;62209;47.568;7.558;2023-04-01T21:16:27;8.04;97.91
73875;HTU21D;62209;47.568;7.558;2023-04-01T21:31:58;8.22;97.16
73875;HTU21D;62209;47.568;7.558;2023-04-01T22:19:03;8.23;95.23
73875;HTU21D;62209;47.568;7.558;2023-04-01T22:34:18;7.98;96.40
73875;HTU21D;62209;47.568;7.558;2023-04-01T22:49:32;7.77;96.79
73875;HTU21D;62209;47.568;7.558;2023-04-01T23:04:47;7.49;97.32
73875;HTU21D;62209;47.568;7.558;2023-04-01T23:20:02;7.41;98.26
73875;HTU21D;62209;47.568;7.558;2023-04-01T23:35:20;7.22;98.84
73875;HTU21D;62209;47.568;7.558;2023-04-01T23:50:26;7.48;98.85
